createdAt,value
2022-09-25T00:00:05.897Z,0.00
2022-09-25T00:01:05.967Z,0.00
2022-09-25T00:02:05.928Z,0.00
2022-09-25T00:03:05.865Z,0.00
2022-09-25T00:04:05.922Z,0.00
2022-09-25T00:05:05.840Z,0.00
2022-09-25T00:06:05.830Z,0.00
2022-09-25T00:07:05.818Z,0.00
2022-09-25T00:08:05.816Z,0.00
2022-09-25T00:09:09.791Z,0.00
2022-09-25T00:10:05.785Z,0.00
2022-09-25T00:11:05.772Z,0.00
2022-09-25T00:12:05.763Z,0.00
2022-09-25T00:13:05.859Z,0.00
2022-09-25T00:14:05.855Z,0.00
2022-09-25T00:15:05.733Z,0.00
2022-09-25T00:16:05.721Z,0.00
2022-09-25T00:17:05.769Z,0.00
2022-09-25T00:18:05.697Z,0.00
2022-09-25T00:19:05.683Z,0.00
2022-09-25T00:20:05.673Z,0.00
2022-09-25T00:21:05.659Z,0.00
2022-09-25T00:22:05.652Z,0.00
2022-09-25T00:23:05.638Z,0.00
2022-09-25T00:24:05.769Z,0.00
2022-09-25T00:25:05.616Z,0.00
2022-09-25T00:26:05.607Z,0.00
2022-09-25T00:27:05.594Z,0.00
2022-09-25T00:28:05.586Z,0.00
2022-09-25T00:29:05.601Z,0.00
2022-09-25T00:30:05.560Z,0.00
2022-09-25T00:31:05.643Z,0.00
2022-09-25T00:32:05.537Z,0.00
2022-09-25T00:33:05.531Z,0.00
2022-09-25T00:34:05.622Z,0.00
2022-09-25T00:35:05.506Z,0.00
2022-09-25T00:36:05.497Z,0.00
2022-09-25T00:37:05.481Z,0.00
2022-09-25T00:38:05.474Z,0.00
2022-09-25T00:39:05.462Z,0.00
2022-09-25T00:40:05.454Z,0.00
2022-09-25T00:41:05.438Z,0.00
2022-09-25T00:42:05.427Z,0.00
2022-09-25T00:43:05.416Z,0.00
2022-09-25T00:44:05.481Z,0.00
2022-09-25T00:45:05.416Z,0.00
2022-09-25T00:46:05.447Z,0.00
2022-09-25T00:47:05.372Z,0.00
2022-09-25T00:48:05.359Z,0.00
2022-09-25T00:49:05.346Z,0.00
2022-09-25T00:50:05.340Z,0.00
2022-09-25T00:51:05.327Z,0.00
2022-09-25T00:52:05.316Z,0.00
2022-09-25T00:53:05.306Z,0.00
2022-09-25T00:54:05.300Z,0.00
2022-09-25T00:55:05.282Z,0.00
2022-09-25T00:56:05.273Z,0.00
2022-09-25T00:57:05.266Z,0.00
2022-09-25T00:58:05.250Z,0.00
2022-09-25T00:59:05.237Z,0.00
2022-09-25T01:01:05.262Z,0.00
2022-09-25T01:02:05.278Z,0.00
2022-09-25T01:03:05.192Z,0.00
2022-09-25T01:04:05.192Z,0.00
2022-09-25T01:05:05.181Z,0.00
2022-09-25T01:06:05.163Z,0.00
2022-09-25T01:07:05.147Z,0.00
2022-09-25T01:08:05.138Z,0.00
2022-09-25T01:09:05.127Z,0.00
2022-09-25T01:10:05.117Z,0.00
2022-09-25T01:11:05.105Z,0.00
2022-09-25T01:12:05.103Z,0.00
2022-09-25T01:13:05.086Z,0.00
2022-09-25T01:14:05.075Z,0.00
2022-09-25T01:15:05.059Z,0.00
2022-09-25T01:16:05.051Z,0.00
2022-09-25T01:17:05.129Z,0.00
2022-09-25T01:18:05.030Z,0.00
2022-09-25T01:19:05.017Z,0.00
2022-09-25T01:20:05.006Z,0.00
2022-09-25T01:21:04.998Z,0.00
2022-09-25T01:22:04.986Z,0.00
2022-09-25T01:23:04.972Z,0.00
2022-09-25T01:24:04.964Z,0.00
2022-09-25T01:25:04.959Z,0.00
2022-09-25T01:26:04.941Z,0.00
2022-09-25T01:27:04.928Z,0.00
2022-09-25T01:28:04.916Z,0.00
2022-09-25T01:29:04.905Z,0.00
2022-09-25T01:30:04.894Z,0.00
2022-09-25T01:31:04.945Z,0.00
2022-09-25T01:32:04.874Z,0.00
2022-09-25T01:33:04.882Z,0.00
2022-09-25T01:34:04.849Z,0.00
2022-09-25T01:35:04.839Z,0.00
2022-09-25T01:36:04.829Z,0.00
2022-09-25T01:37:04.815Z,0.00
2022-09-25T01:38:04.806Z,0.00
2022-09-25T01:39:04.793Z,0.00
2022-09-25T01:40:04.823Z,0.00
2022-09-25T01:41:04.769Z,0.00
2022-09-25T01:42:04.768Z,0.00
2022-09-25T01:43:04.757Z,0.00
2022-09-25T01:44:04.741Z,0.00
2022-09-25T01:45:04.726Z,0.00
2022-09-25T01:46:04.759Z,0.00
2022-09-25T01:47:04.705Z,0.00
2022-09-25T01:48:04.698Z,0.00
2022-09-25T01:49:04.706Z,0.00
2022-09-25T01:50:04.682Z,0.00
2022-09-25T01:51:04.672Z,0.00
2022-09-25T01:52:04.649Z,0.00
2022-09-25T01:53:04.643Z,0.00
2022-09-25T01:54:04.705Z,0.00
2022-09-25T01:55:04.616Z,0.00
2022-09-25T01:56:04.608Z,0.00
2022-09-25T01:57:04.592Z,0.00
2022-09-25T01:58:04.584Z,0.00
2022-09-25T01:59:04.571Z,0.00
2022-09-25T02:00:04.559Z,0.00
2022-09-25T02:01:04.580Z,0.00
2022-09-25T02:02:04.624Z,0.00
2022-09-25T02:03:04.527Z,0.00
2022-09-25T02:04:04.590Z,0.00
2022-09-25T02:05:04.619Z,0.00
2022-09-25T02:06:04.493Z,0.00
2022-09-25T02:07:04.479Z,0.00
2022-09-25T02:08:04.470Z,0.00
2022-09-25T02:09:04.458Z,0.00
2022-09-25T02:10:04.449Z,0.00
2022-09-25T02:11:04.437Z,0.00
2022-09-25T02:12:04.427Z,0.00
2022-09-25T02:13:04.415Z,0.00
2022-09-25T02:14:04.405Z,0.00
2022-09-25T02:15:04.393Z,0.00
2022-09-25T02:16:04.380Z,0.00
2022-09-25T02:17:04.408Z,0.00
2022-09-25T02:18:04.361Z,0.00
2022-09-25T02:19:04.350Z,0.00
2022-09-25T02:20:04.338Z,0.00
2022-09-25T02:21:04.348Z,0.00
2022-09-25T02:22:04.316Z,0.00
2022-09-25T02:23:04.302Z,0.00
2022-09-25T02:24:04.429Z,0.00
2022-09-25T02:25:04.283Z,0.00
2022-09-25T02:26:04.323Z,0.00
2022-09-25T02:27:04.308Z,0.00
2022-09-25T02:28:04.299Z,0.00
2022-09-25T02:29:04.285Z,0.00
2022-09-25T02:30:04.327Z,0.00
2022-09-25T02:31:04.386Z,0.00
2022-09-25T02:32:04.358Z,0.00
2022-09-25T02:33:04.343Z,0.00
2022-09-25T02:34:04.275Z,0.00
2022-09-25T02:35:04.171Z,0.00
2022-09-25T02:36:04.160Z,0.00
2022-09-25T02:37:04.170Z,0.00
2022-09-25T02:38:04.136Z,0.00
2022-09-25T02:39:04.125Z,0.00
2022-09-25T02:40:04.114Z,0.00
2022-09-25T02:41:04.102Z,0.00
2022-09-25T02:42:04.091Z,0.00
2022-09-25T02:43:04.082Z,0.00
2022-09-25T02:44:04.146Z,0.00
2022-09-25T02:45:04.061Z,0.00
2022-09-25T02:46:04.078Z,0.00
2022-09-25T02:47:04.040Z,0.00
2022-09-25T02:48:04.029Z,0.00
2022-09-25T02:49:04.019Z,0.00
2022-09-25T02:50:04.026Z,0.00
2022-09-25T02:51:03.995Z,0.00
2022-09-25T02:52:03.985Z,0.00
2022-09-25T02:53:04.079Z,0.00
2022-09-25T02:54:03.978Z,0.00
2022-09-25T02:55:03.977Z,0.00
2022-09-25T02:56:03.937Z,0.00
2022-09-25T02:57:04.515Z,0.00
2022-09-25T02:58:03.917Z,0.00
2022-09-25T02:59:03.904Z,0.00
2022-09-25T03:00:03.896Z,0.00
2022-09-25T03:01:03.943Z,0.00
2022-09-25T03:02:04.007Z,0.00
2022-09-25T03:03:03.875Z,0.00
2022-09-25T03:04:03.871Z,0.00
2022-09-25T03:05:03.849Z,0.00
2022-09-25T03:06:03.823Z,0.00
2022-09-25T03:07:03.816Z,0.00
2022-09-25T03:08:03.801Z,0.00
2022-09-25T03:09:03.817Z,0.00
2022-09-25T03:10:03.781Z,0.00
2022-09-25T03:11:03.773Z,0.00
2022-09-25T03:12:03.759Z,0.00
2022-09-25T03:13:03.750Z,0.00
2022-09-25T03:14:03.804Z,0.00
2022-09-25T03:15:03.726Z,0.00
2022-09-25T03:16:03.757Z,0.00
2022-09-25T03:17:03.705Z,0.00
2022-09-25T03:18:03.693Z,0.00
2022-09-25T03:19:03.687Z,0.00
2022-09-25T03:20:03.672Z,0.00
2022-09-25T03:21:03.662Z,0.00
2022-09-25T03:22:03.655Z,0.00
2022-09-25T03:23:03.638Z,0.00
2022-09-25T03:24:03.652Z,0.00
2022-09-25T03:25:03.750Z,0.00
2022-09-25T03:26:03.604Z,0.00
2022-09-25T03:27:03.595Z,0.00
2022-09-25T03:28:03.581Z,0.00
2022-09-25T03:29:03.573Z,0.00
2022-09-25T03:30:03.565Z,0.00
2022-09-25T03:31:03.683Z,0.00
2022-09-25T03:32:03.539Z,0.00
2022-09-25T03:33:03.529Z,0.00
2022-09-25T03:34:03.560Z,0.00
2022-09-25T03:35:03.506Z,0.00
2022-09-25T03:36:03.495Z,0.00
2022-09-25T03:37:03.484Z,0.00
2022-09-25T03:38:03.470Z,0.00
2022-09-25T03:39:03.463Z,0.00
2022-09-25T03:40:03.447Z,0.00
2022-09-25T03:41:03.478Z,0.00
2022-09-25T03:42:03.429Z,0.00
2022-09-25T03:43:27.835Z,0.00
2022-09-25T03:44:27.825Z,0.00
2022-09-25T03:45:27.813Z,0.00
2022-09-25T03:46:27.919Z,0.00
2022-09-25T03:47:27.791Z,0.00
2022-09-25T03:48:27.777Z,0.00
2022-09-25T03:49:27.771Z,0.00
2022-09-25T03:50:27.762Z,0.00
2022-09-25T03:51:27.746Z,0.00
2022-09-25T03:52:27.733Z,0.00
2022-09-25T03:53:27.723Z,0.00
2022-09-25T03:54:27.710Z,0.00
2022-09-25T03:55:27.699Z,0.00
2022-09-25T03:56:27.713Z,0.00
2022-09-25T03:57:27.679Z,0.00
2022-09-25T03:58:27.665Z,0.00
2022-09-25T03:59:27.655Z,0.00
2022-09-25T04:00:27.645Z,0.00
2022-09-25T04:01:27.751Z,0.00
2022-09-25T04:02:27.687Z,0.00
2022-09-25T04:03:27.611Z,0.00
2022-09-25T04:04:27.598Z,0.00
2022-09-25T04:05:27.588Z,0.00
2022-09-25T04:06:27.577Z,0.00
2022-09-25T04:07:27.565Z,0.00
2022-09-25T04:08:27.551Z,0.00
2022-09-25T04:09:27.547Z,0.00
2022-09-25T04:10:27.529Z,0.00
2022-09-25T04:11:27.519Z,0.00
2022-09-25T04:12:27.534Z,0.00
2022-09-25T04:13:27.495Z,0.00
2022-09-25T04:14:27.483Z,0.00
2022-09-25T04:15:27.474Z,0.00
2022-09-25T04:16:27.563Z,0.00
2022-09-25T04:17:27.451Z,0.00
2022-09-25T04:18:27.442Z,0.00
2022-09-25T04:19:27.429Z,0.00
2022-09-25T04:20:27.419Z,0.00
2022-09-25T04:21:27.411Z,0.00
2022-09-25T04:22:27.394Z,0.00
2022-09-25T04:23:27.383Z,0.00
2022-09-25T04:24:27.370Z,0.00
2022-09-25T04:25:27.361Z,0.00
2022-09-25T04:26:27.346Z,0.00
2022-09-25T04:27:27.339Z,0.00
2022-09-25T04:28:27.431Z,0.00
2022-09-25T04:29:27.314Z,0.00
2022-09-25T04:30:27.303Z,0.00
2022-09-25T04:31:27.412Z,0.00
2022-09-25T04:32:27.280Z,0.00
2022-09-25T04:33:27.269Z,0.00
2022-09-25T04:34:27.257Z,0.00
2022-09-25T04:35:27.250Z,0.00
2022-09-25T04:36:27.233Z,0.00
2022-09-25T04:37:27.223Z,0.00
2022-09-25T04:38:27.219Z,0.00
2022-09-25T04:39:27.203Z,0.00
2022-09-25T04:40:27.267Z,0.00
2022-09-25T04:41:27.188Z,0.00
2022-09-25T04:42:27.184Z,0.00
2022-09-25T04:43:27.199Z,0.00
2022-09-25T04:44:27.204Z,0.00
2022-09-25T04:45:27.163Z,0.00
2022-09-25T04:46:27.249Z,0.00
2022-09-25T04:47:27.109Z,0.00
2022-09-25T04:48:27.102Z,0.00
2022-09-25T04:49:27.088Z,0.00
2022-09-25T04:50:27.076Z,0.00
2022-09-25T04:51:27.066Z,0.00
2022-09-25T04:52:27.054Z,0.00
2022-09-25T04:53:27.046Z,0.00
2022-09-25T04:54:27.032Z,0.00
2022-09-25T04:55:27.026Z,0.00
2022-09-25T04:56:27.013Z,0.00
2022-09-25T04:57:53.604Z,0.00
2022-09-25T04:58:28.015Z,0.00
2022-09-25T04:59:26.977Z,0.00
2022-09-25T05:00:26.989Z,0.00
2022-09-25T05:01:26.992Z,0.00
2022-09-25T05:02:27.128Z,0.00
2022-09-25T05:03:27.048Z,0.00
2022-09-25T05:04:26.919Z,0.00
2022-09-25T05:05:26.910Z,0.00
2022-09-25T05:06:26.897Z,0.00
2022-09-25T05:07:26.887Z,0.00
2022-09-25T05:08:26.878Z,0.00
2022-09-25T05:09:26.875Z,0.00
2022-09-25T05:10:26.853Z,0.00
2022-09-25T05:11:26.845Z,0.00
2022-09-25T05:12:26.831Z,0.00
2022-09-25T05:13:26.821Z,5.62
2022-09-25T05:14:26.809Z,5.62
2022-09-25T05:15:26.807Z,5.62
2022-09-25T05:16:26.862Z,5.62
2022-09-25T05:17:26.779Z,5.62
2022-09-25T05:18:26.775Z,5.62
2022-09-25T05:19:26.754Z,5.62
2022-09-25T05:20:26.742Z,5.62
2022-09-25T05:21:26.733Z,5.62
2022-09-25T05:22:26.721Z,11.25
2022-09-25T05:23:26.711Z,11.25
2022-09-25T05:24:26.793Z,11.25
2022-09-25T05:25:26.704Z,11.25
2022-09-25T05:26:26.675Z,11.25
2022-09-25T05:27:26.665Z,11.25
2022-09-25T05:28:26.667Z,11.25
2022-09-25T05:29:26.647Z,11.25
2022-09-25T05:30:26.641Z,11.25
2022-09-25T05:31:26.645Z,11.25
2022-09-25T05:32:26.634Z,11.25
2022-09-25T05:33:26.648Z,16.88
2022-09-25T05:34:26.609Z,16.88
2022-09-25T05:35:26.576Z,16.88
2022-09-25T05:36:26.644Z,16.88
2022-09-25T05:37:26.566Z,16.88
2022-09-25T05:38:26.545Z,22.50
2022-09-25T05:39:26.536Z,22.50
2022-09-25T05:40:26.561Z,22.50
2022-09-25T05:41:26.511Z,22.50
2022-09-25T05:42:26.499Z,22.50
2022-09-25T05:43:26.486Z,22.50
2022-09-25T05:44:26.477Z,28.12
2022-09-25T05:45:26.464Z,28.12
2022-09-25T05:46:26.527Z,28.12
2022-09-25T05:47:26.440Z,28.12
2022-09-25T05:48:26.537Z,28.12
2022-09-25T05:49:26.423Z,28.12
2022-09-25T05:50:26.410Z,33.75
2022-09-25T05:51:26.395Z,33.75
2022-09-25T05:52:26.386Z,33.75
2022-09-25T05:53:26.372Z,33.75
2022-09-25T05:54:26.363Z,33.75
2022-09-25T05:55:26.351Z,39.38
2022-09-25T05:56:26.339Z,39.38
2022-09-25T05:57:26.326Z,39.38
2022-09-25T05:58:26.319Z,39.38
2022-09-25T05:59:26.302Z,39.38
2022-09-25T06:00:26.293Z,45.00
2022-09-25T06:01:26.418Z,45.00
2022-09-25T06:02:26.324Z,45.00
2022-09-25T06:03:26.259Z,45.00
2022-09-25T06:04:26.276Z,50.62
2022-09-25T06:05:26.236Z,50.62
2022-09-25T06:06:27.667Z,50.62
2022-09-25T06:07:26.217Z,50.62
2022-09-25T06:08:26.215Z,56.25
2022-09-25T06:09:26.190Z,56.25
2022-09-25T06:10:26.257Z,56.25
2022-09-25T06:11:26.169Z,56.25
2022-09-25T06:12:26.157Z,61.88
2022-09-25T06:13:26.149Z,61.88
2022-09-25T06:14:26.139Z,61.88
2022-09-25T06:15:26.122Z,67.50
2022-09-25T06:16:26.222Z,67.50
2022-09-25T06:17:26.100Z,67.50
2022-09-25T06:18:26.089Z,67.50
2022-09-25T06:19:26.075Z,73.12
2022-09-25T06:20:26.088Z,73.12
2022-09-25T06:21:26.051Z,73.12
2022-09-25T06:22:26.044Z,73.12
2022-09-25T06:23:26.036Z,73.12
2022-09-25T06:24:26.020Z,73.12
2022-09-25T06:25:26.005Z,78.75
2022-09-25T06:26:25.997Z,78.75
2022-09-25T06:27:25.990Z,78.75
2022-09-25T06:28:25.977Z,78.75
2022-09-25T06:29:25.965Z,78.75
2022-09-25T06:30:25.980Z,78.75
2022-09-25T06:31:25.975Z,84.38
2022-09-25T06:32:25.929Z,84.38
2022-09-25T06:33:25.917Z,84.38
2022-09-25T06:34:25.905Z,84.38
2022-09-25T06:35:25.901Z,84.38
2022-09-25T06:36:27.404Z,84.38
2022-09-25T06:37:25.869Z,84.38
2022-09-25T06:38:25.866Z,84.38
2022-09-25T06:39:25.847Z,90.00
2022-09-25T06:40:25.941Z,90.00
2022-09-25T06:41:25.826Z,90.00
2022-09-25T06:42:25.815Z,90.00
2022-09-25T06:43:25.805Z,90.00
2022-09-25T06:44:25.796Z,90.00
2022-09-25T06:45:25.784Z,90.00
2022-09-25T06:46:25.834Z,95.62
2022-09-25T06:47:27.003Z,95.62
2022-09-25T06:48:25.749Z,95.62
2022-09-25T06:49:25.736Z,106.88
2022-09-25T06:50:25.768Z,112.50
2022-09-25T06:51:25.714Z,106.88
2022-09-25T06:52:25.738Z,106.88
2022-09-25T06:53:25.696Z,101.25
2022-09-25T06:54:25.678Z,101.25
2022-09-25T06:55:25.670Z,101.25
2022-09-25T06:56:25.660Z,106.88
2022-09-25T06:57:25.644Z,106.88
2022-09-25T06:58:25.637Z,106.88
2022-09-25T06:59:25.623Z,106.88
2022-09-25T07:00:25.713Z,106.88
2022-09-25T07:01:25.694Z,106.88
2022-09-25T07:02:25.801Z,106.88
2022-09-25T07:03:25.599Z,112.50
2022-09-25T07:04:25.566Z,112.50
2022-09-25T07:05:25.563Z,112.50
2022-09-25T07:06:25.546Z,112.50
2022-09-25T07:07:25.530Z,112.50
2022-09-25T07:08:25.542Z,112.50
2022-09-25T07:09:25.509Z,112.50
2022-09-25T07:10:25.497Z,118.12
2022-09-25T07:11:25.488Z,146.25
2022-09-25T07:12:25.478Z,241.88
2022-09-25T07:13:25.471Z,348.75
2022-09-25T07:14:25.495Z,416.25
2022-09-25T07:15:25.441Z,405.00
2022-09-25T07:16:25.552Z,410.62
2022-09-25T07:17:25.418Z,438.75
2022-09-25T07:18:25.408Z,450.00
2022-09-25T07:19:27.750Z,461.25
2022-09-25T07:20:25.384Z,444.38
2022-09-25T07:21:25.375Z,461.25
2022-09-25T07:22:25.362Z,478.12
2022-09-25T07:23:25.356Z,489.38
2022-09-25T07:24:25.372Z,483.75
2022-09-25T07:25:25.370Z,495.00
2022-09-25T07:26:25.324Z,483.75
2022-09-25T07:27:25.310Z,348.75
2022-09-25T07:28:25.296Z,500.62
2022-09-25T07:29:25.284Z,500.62
2022-09-25T07:30:25.273Z,500.62
2022-09-25T07:31:25.333Z,495.00
2022-09-25T07:32:25.253Z,500.62
2022-09-25T07:33:25.239Z,511.88
2022-09-25T07:34:25.230Z,511.88
2022-09-25T07:35:25.224Z,511.88
2022-09-25T07:36:25.207Z,511.88
2022-09-25T07:37:25.202Z,517.50
2022-09-25T07:38:25.184Z,528.75
2022-09-25T07:39:25.172Z,534.38
2022-09-25T07:40:25.414Z,523.12
2022-09-25T07:41:25.149Z,540.00
2022-09-25T07:42:25.138Z,568.12
2022-09-25T07:43:25.126Z,551.25
2022-09-25T07:44:29.029Z,545.62
2022-09-25T07:45:25.108Z,568.12
2022-09-25T07:46:25.237Z,573.75
2022-09-25T07:47:25.101Z,579.38
2022-09-25T07:48:25.077Z,568.12
2022-09-25T07:49:25.061Z,579.38
2022-09-25T07:50:25.052Z,596.25
2022-09-25T07:51:25.038Z,601.88
2022-09-25T07:52:25.030Z,630.00
2022-09-25T07:53:25.017Z,624.38
2022-09-25T07:54:25.008Z,624.38
2022-09-25T07:55:24.995Z,635.62
2022-09-25T07:56:25.008Z,641.25
2022-09-25T07:57:24.973Z,573.75
2022-09-25T07:58:24.987Z,658.12
2022-09-25T07:59:24.963Z,663.75
2022-09-25T08:00:24.939Z,680.62
2022-09-25T08:01:25.014Z,686.25
2022-09-25T08:02:25.062Z,720.00
2022-09-25T08:03:24.905Z,736.88
2022-09-25T08:04:24.895Z,720.00
2022-09-25T08:05:24.884Z,731.25
2022-09-25T08:06:24.874Z,753.75
2022-09-25T08:07:24.860Z,776.25
2022-09-25T08:08:24.852Z,736.88
2022-09-25T08:09:24.846Z,708.75
2022-09-25T08:10:24.849Z,703.12
2022-09-25T08:11:24.816Z,725.62
2022-09-25T08:12:24.835Z,753.75
2022-09-25T08:13:24.797Z,691.88
2022-09-25T08:14:26.959Z,714.38
2022-09-25T08:15:24.775Z,669.38
2022-09-25T08:16:24.823Z,691.88
2022-09-25T08:17:24.750Z,720.00
2022-09-25T08:18:24.741Z,213.75
2022-09-25T08:19:24.727Z,753.75
2022-09-25T08:20:24.725Z,720.00
2022-09-25T08:21:24.727Z,652.50
2022-09-25T08:22:24.697Z,742.50
2022-09-25T08:23:24.687Z,731.25
2022-09-25T08:24:24.675Z,663.75
2022-09-25T08:25:24.664Z,731.25
2022-09-25T08:26:24.657Z,483.75
2022-09-25T08:27:24.643Z,708.75
2022-09-25T08:28:24.654Z,320.62
2022-09-25T08:29:24.624Z,770.62
2022-09-25T08:30:24.611Z,270.00
2022-09-25T08:31:24.669Z,326.25
2022-09-25T08:32:24.606Z,776.25
2022-09-25T08:33:24.581Z,202.50
2022-09-25T08:34:41.683Z,596.25
2022-09-25T08:35:25.579Z,517.50
2022-09-25T08:36:24.547Z,866.25
2022-09-25T08:37:24.534Z,292.50
2022-09-25T08:38:24.521Z,258.75
2022-09-25T08:39:24.513Z,489.38
2022-09-25T08:40:24.587Z,202.50
2022-09-25T08:41:24.507Z,208.12
2022-09-25T08:42:24.477Z,663.75
2022-09-25T08:43:24.481Z,331.88
2022-09-25T08:44:24.480Z,320.62
2022-09-25T08:45:24.445Z,213.75
2022-09-25T08:46:24.526Z,208.12
2022-09-25T08:47:24.423Z,241.88
2022-09-25T08:48:24.417Z,810.00
2022-09-25T08:49:24.399Z,877.50
2022-09-25T08:50:24.391Z,258.75
2022-09-25T08:51:24.384Z,292.50
2022-09-25T08:52:24.369Z,315.00
2022-09-25T08:53:24.483Z,275.62
2022-09-25T08:54:24.346Z,281.25
2022-09-25T08:55:24.334Z,680.62
2022-09-25T08:56:24.324Z,663.75
2022-09-25T08:57:24.309Z,343.12
2022-09-25T08:58:24.301Z,241.88
2022-09-25T08:59:24.290Z,196.88
2022-09-25T09:00:24.304Z,225.00
2022-09-25T09:01:24.329Z,264.38
2022-09-25T09:02:24.296Z,916.88
2022-09-25T09:03:24.256Z,303.75
2022-09-25T09:04:24.249Z,540.00
2022-09-25T09:05:24.222Z,945.00
2022-09-25T09:06:24.212Z,241.88
2022-09-25T09:07:27.168Z,286.88
2022-09-25T09:08:24.191Z,613.12
2022-09-25T09:09:24.176Z,500.62
2022-09-25T09:10:24.168Z,1018.12
2022-09-25T09:11:24.162Z,303.75
2022-09-25T09:12:24.147Z,978.75
2022-09-25T09:13:24.132Z,247.50
2022-09-25T09:14:24.122Z,281.25
2022-09-25T09:15:24.179Z,219.38
2022-09-25T09:16:24.157Z,495.00
2022-09-25T09:17:24.088Z,860.62
2022-09-25T09:18:24.085Z,1040.62
2022-09-25T09:19:24.065Z,950.62
2022-09-25T09:20:24.056Z,1040.62
2022-09-25T09:21:24.041Z,1063.12
2022-09-25T09:22:24.034Z,405.00
2022-09-25T09:23:24.020Z,1158.75
2022-09-25T09:24:24.010Z,793.12
2022-09-25T09:25:23.999Z,343.12
2022-09-25T09:26:23.991Z,270.00
2022-09-25T09:27:23.980Z,247.50
2022-09-25T09:28:23.983Z,247.50
2022-09-25T09:29:23.987Z,270.00
2022-09-25T09:30:23.947Z,258.75
2022-09-25T09:31:23.989Z,236.25
2022-09-25T09:32:23.952Z,258.75
2022-09-25T09:33:23.914Z,270.00
2022-09-25T09:34:36.165Z,281.25
2022-09-25T09:35:23.890Z,303.75
2022-09-25T09:36:23.881Z,826.88
2022-09-25T09:37:23.868Z,253.12
2022-09-25T09:38:23.856Z,270.00
2022-09-25T09:39:23.843Z,292.50
2022-09-25T09:40:23.888Z,315.00
2022-09-25T09:41:23.832Z,315.00
2022-09-25T09:42:23.811Z,303.75
2022-09-25T09:43:23.800Z,286.88
2022-09-25T09:44:23.791Z,1051.88
2022-09-25T09:45:23.776Z,1102.50
2022-09-25T09:46:23.780Z,1091.25
2022-09-25T09:47:23.758Z,1125.00
2022-09-25T09:48:23.769Z,905.62
2022-09-25T09:49:23.733Z,956.25
2022-09-25T09:50:23.725Z,489.38
2022-09-25T09:51:23.712Z,393.75
2022-09-25T09:52:23.701Z,787.50
2022-09-25T09:53:23.718Z,495.00
2022-09-25T09:54:23.703Z,348.75
2022-09-25T09:55:23.668Z,315.00
2022-09-25T09:56:23.661Z,500.62
2022-09-25T09:57:23.646Z,545.62
2022-09-25T09:58:23.636Z,1035.00
2022-09-25T09:59:23.628Z,1057.50
2022-09-25T10:00:23.615Z,978.75
2022-09-25T10:01:49.346Z,1051.88
2022-09-25T10:02:24.799Z,1051.88
2022-09-25T10:03:23.791Z,303.75
2022-09-25T10:04:23.592Z,241.88
2022-09-25T10:05:23.572Z,208.12
2022-09-25T10:06:23.560Z,196.88
2022-09-25T10:07:23.538Z,196.88
2022-09-25T10:08:23.527Z,202.50
2022-09-25T10:09:23.518Z,208.12
2022-09-25T10:10:23.514Z,219.38
2022-09-25T10:11:23.493Z,230.62
2022-09-25T10:12:23.483Z,236.25
2022-09-25T10:13:23.480Z,241.88
2022-09-25T10:14:23.459Z,241.88
2022-09-25T10:15:23.456Z,236.25
2022-09-25T10:16:23.439Z,236.25
2022-09-25T10:17:23.441Z,247.50
2022-09-25T10:18:23.466Z,253.12
2022-09-25T10:19:23.418Z,258.75
2022-09-25T10:20:23.421Z,275.62
2022-09-25T10:21:23.382Z,286.88
2022-09-25T10:22:23.376Z,281.25
2022-09-25T10:23:23.360Z,264.38
2022-09-25T10:24:23.349Z,270.00
2022-09-25T10:25:23.340Z,270.00
2022-09-25T10:26:23.326Z,253.12
2022-09-25T10:27:23.316Z,241.88
2022-09-25T10:28:23.314Z,219.38
2022-09-25T10:29:23.310Z,196.88
2022-09-25T10:30:23.283Z,191.25
2022-09-25T10:31:23.299Z,196.88
2022-09-25T10:32:23.261Z,191.25
2022-09-25T10:33:23.252Z,174.38
2022-09-25T10:34:23.236Z,157.50
2022-09-25T10:35:23.227Z,129.38
2022-09-25T10:36:23.238Z,112.50
2022-09-25T10:37:23.206Z,106.88
2022-09-25T10:38:23.193Z,106.88
2022-09-25T10:39:42.830Z,112.50
2022-09-25T10:40:23.260Z,112.50
2022-09-25T10:41:23.163Z,112.50
2022-09-25T10:42:23.148Z,118.12
2022-09-25T10:43:23.139Z,123.75
2022-09-25T10:44:23.128Z,129.38
2022-09-25T10:45:23.116Z,140.62
2022-09-25T10:46:23.127Z,151.88
2022-09-25T10:47:23.092Z,157.50
2022-09-25T10:48:23.079Z,168.75
2022-09-25T10:49:23.075Z,180.00
2022-09-25T10:50:23.057Z,185.62
2022-09-25T10:51:23.070Z,196.88
2022-09-25T10:52:23.078Z,196.88
2022-09-25T10:53:23.026Z,202.50
2022-09-25T10:54:23.011Z,208.12
2022-09-25T10:55:23.003Z,213.75
2022-09-25T10:56:22.987Z,219.38
2022-09-25T10:57:22.983Z,230.62
2022-09-25T10:58:22.964Z,230.62
2022-09-25T10:59:23.076Z,236.25
2022-09-25T11:00:22.948Z,247.50
2022-09-25T11:01:23.018Z,253.12
2022-09-25T11:02:23.077Z,258.75
2022-09-25T11:03:22.923Z,270.00
2022-09-25T11:04:22.903Z,281.25
2022-09-25T11:05:22.885Z,286.88
2022-09-25T11:06:22.871Z,286.88
2022-09-25T11:07:22.861Z,286.88
2022-09-25T11:08:22.876Z,298.12
2022-09-25T11:09:22.851Z,303.75
2022-09-25T11:10:22.831Z,320.62
2022-09-25T11:11:22.815Z,331.88
2022-09-25T11:12:22.810Z,343.12
2022-09-25T11:13:22.801Z,365.62
2022-09-25T11:14:22.787Z,860.62
2022-09-25T11:15:22.790Z,787.50
2022-09-25T11:16:22.871Z,511.88
2022-09-25T11:17:22.750Z,421.88
2022-09-25T11:18:22.742Z,416.25
2022-09-25T11:19:22.727Z,399.38
2022-09-25T11:20:22.749Z,399.38
2022-09-25T11:21:22.704Z,393.75
2022-09-25T11:22:22.693Z,388.12
2022-09-25T11:23:22.682Z,382.50
2022-09-25T11:24:22.698Z,382.50
2022-09-25T11:25:22.662Z,388.12
2022-09-25T11:26:22.649Z,393.75
2022-09-25T11:27:22.652Z,393.75
2022-09-25T11:28:22.657Z,393.75
2022-09-25T11:29:22.634Z,399.38
2022-09-25T11:30:22.605Z,393.75
2022-09-25T11:31:22.628Z,382.50
2022-09-25T11:32:22.582Z,376.88
2022-09-25T11:33:22.571Z,376.88
2022-09-25T11:34:22.560Z,382.50
2022-09-25T11:35:22.567Z,388.12
2022-09-25T11:36:22.537Z,399.38
2022-09-25T11:37:22.528Z,405.00
2022-09-25T11:38:22.517Z,410.62
2022-09-25T11:39:22.553Z,421.88
2022-09-25T11:40:22.618Z,416.25
2022-09-25T11:41:22.487Z,410.62
2022-09-25T11:42:22.475Z,405.00
2022-09-25T11:43:22.463Z,405.00
2022-09-25T11:44:22.459Z,410.62
2022-09-25T11:45:22.461Z,405.00
2022-09-25T11:46:22.505Z,388.12
2022-09-25T11:47:22.418Z,376.88
2022-09-25T11:48:22.406Z,365.62
2022-09-25T11:49:22.395Z,365.62
2022-09-25T11:50:22.392Z,376.88
2022-09-25T11:51:22.406Z,399.38
2022-09-25T11:52:22.408Z,416.25
2022-09-25T11:53:22.349Z,427.50
2022-09-25T11:54:34.729Z,450.00
2022-09-25T11:55:23.353Z,478.12
2022-09-25T11:56:22.337Z,483.75
2022-09-25T11:57:22.307Z,455.62
2022-09-25T11:58:22.291Z,438.75
2022-09-25T11:59:22.284Z,410.62
2022-09-25T12:00:22.270Z,410.62
2022-09-25T12:01:22.311Z,416.25
2022-09-25T12:02:22.366Z,416.25
2022-09-25T12:03:22.259Z,427.50
2022-09-25T12:04:22.227Z,433.12
2022-09-25T12:05:22.217Z,433.12
2022-09-25T12:06:22.207Z,427.50
2022-09-25T12:07:22.195Z,433.12
2022-09-25T12:08:22.182Z,433.12
2022-09-25T12:09:22.173Z,427.50
2022-09-25T12:10:22.160Z,382.50
2022-09-25T12:11:22.152Z,315.00
2022-09-25T12:12:22.245Z,292.50
2022-09-25T12:13:22.135Z,298.12
2022-09-25T12:14:22.135Z,309.38
2022-09-25T12:15:22.111Z,298.12
2022-09-25T12:16:22.157Z,275.62
2022-09-25T12:17:22.084Z,258.75
2022-09-25T12:18:22.074Z,264.38
2022-09-25T12:19:22.062Z,270.00
2022-09-25T12:20:22.055Z,270.00
2022-09-25T12:21:22.044Z,281.25
2022-09-25T12:22:22.030Z,315.00
2022-09-25T12:23:22.021Z,348.75
2022-09-25T12:24:22.005Z,365.62
2022-09-25T12:25:22.019Z,360.00
2022-09-25T12:26:21.998Z,348.75
2022-09-25T12:27:21.980Z,360.00
2022-09-25T12:28:22.039Z,376.88
2022-09-25T12:29:22.006Z,399.38
2022-09-25T12:30:22.055Z,405.00
2022-09-25T12:31:21.969Z,405.00
2022-09-25T12:32:21.916Z,410.62
2022-09-25T12:33:21.908Z,388.12
2022-09-25T12:34:21.894Z,371.25
2022-09-25T12:35:22.035Z,365.62
2022-09-25T12:36:21.904Z,360.00
2022-09-25T12:37:26.778Z,365.62
2022-09-25T12:38:21.850Z,371.25
2022-09-25T12:39:21.849Z,371.25
2022-09-25T12:40:21.946Z,348.75
2022-09-25T12:41:21.820Z,331.88
2022-09-25T12:42:21.806Z,320.62
2022-09-25T12:43:21.799Z,303.75
2022-09-25T12:44:27.141Z,292.50
2022-09-25T12:45:21.794Z,281.25
2022-09-25T12:46:21.888Z,275.62
2022-09-25T12:47:21.822Z,275.62
2022-09-25T12:48:21.869Z,275.62
2022-09-25T12:49:21.758Z,275.62
2022-09-25T12:50:21.879Z,270.00
2022-09-25T12:51:21.718Z,264.38